This is the latest recevied weather packets stored in our database for station/object DD5ZT-13. If no packets are shown the sender has not sent any weather packets the latest 10 day(s).
| Time | Temp. | Humidity | Pressure | Rain* | Wind** | Luminosity | Snow |
|---|---|---|---|---|---|---|---|
| 1777104261 | 12.78° C | 77% | 1015.1 hPa | 0 mm | - | - | - |
| 1777103636 | 12.78° C | 76% | 1015.1 hPa | 0 mm | - | - | - |
| 1777103010 | 13.33° C | 74% | 1014.9 hPa | 0 mm | - | - | - |
| 1777102385 | 13.33° C | 72% | 1014.9 hPa | 0 mm | - | - | - |
| 1777101760 | 14.44° C | 68% | 1014.9 hPa | 0 mm | - | - | - |
| 1777101135 | 15° C | 76% | 1014.9 hPa | 0 mm | - | - | - |
| 1777100509 | 14.44° C | 78% | 1015.1 hPa | 0 mm | - | - | - |
| 1777099884 | 14.44° C | 76% | 1015.1 hPa | 0 mm | - | - | - |
| 1777099259 | 13.89° C | 80% | 1015 hPa | 0 mm | - | - | - |
| 1777098634 | 13.89° C | 79% | 1015 hPa | 0 mm | - | - | - |
| 1777098009 | 13.33° C | 80% | 1014.8 hPa | 0 mm | - | - | - |
| 1777097384 | 13.33° C | 80% | 1014.6 hPa | 0 mm | - | - | - |
| 1777096759 | 12.78° C | 84% | 1014.8 hPa | 0 mm | - | - | - |
| 1777096133 | 13.33° C | 83% | 1014.9 hPa | 0 mm | - | - | - |
| 1777095508 | 12.78° C | 87% | 1014.7 hPa | 0 mm | - | - | - |
| 1777094883 | 12.78° C | 88% | 1014.6 hPa | 0 mm | - | - | - |
| 1777094258 | 12.78° C | 89% | 1014.5 hPa | 0 mm | - | - | - |
| 1777093633 | 12.22° C | 89% | 1014.5 hPa | 0 mm | - | - | - |
| 1777093008 | 12.22° C | 90% | 1014.4 hPa | 0 mm | - | - | - |
| 1777092383 | 12.22° C | 91% | 1014.5 hPa | 0 mm | - | - | - |
| 1777091757 | 11.67° C | 90% | 1014.4 hPa | 0 mm | - | - | - |
| 1777091132 | 11.67° C | 94% | 1014.6 hPa | 0 mm | - | - | - |
| 1777090507 | 11.67° C | 10% | - | 0 mm | - | - | - |
| 1777058888 | 12.78° C | 88% | 1017.1 hPa | 0 mm | - | - | - |
| 1777058263 | 13.33° C | 85% | 1017.2 hPa | 0 mm | - | - | - |
* Rain latest hour (hover to see other rain measurements)
** Current wind speed in m/s (hover to see current wind gust speed)